createdAt,value
2023-03-22T00:00:42.191Z,100954.41
2023-03-22T00:03:13.370Z,100961.47
2023-03-22T00:05:44.406Z,100952.00
2023-03-22T00:08:15.895Z,100953.16
2023-03-22T00:10:50.054Z,100955.22
2023-03-22T00:13:21.563Z,100961.34
2023-03-22T00:15:52.980Z,100963.13
2023-03-22T00:18:26.516Z,100966.19
2023-03-22T00:21:02.807Z,100965.94
2023-03-22T00:23:33.645Z,100970.59
2023-03-22T00:26:04.396Z,100969.88
2023-03-22T00:28:36.817Z,100971.84
2023-03-22T00:31:08.173Z,100979.19
2023-03-22T00:33:39.801Z,100965.97
2023-03-22T00:36:12.855Z,100971.00
2023-03-22T00:38:44.618Z,100972.91
2023-03-22T00:41:20.694Z,100981.66
2023-03-22T00:43:52.113Z,100979.06
2023-03-22T00:46:26.889Z,100988.66
2023-03-22T00:48:58.393Z,100986.59
2023-03-22T00:51:29.676Z,100984.16
2023-03-22T00:54:00.503Z,100987.13
2023-03-22T00:56:31.297Z,100969.19
2023-03-22T00:59:15.191Z,100976.53
2023-03-22T01:01:57.642Z,100978.47
2023-03-22T01:04:32.798Z,100968.13
2023-03-22T01:07:08.720Z,100964.19
2023-03-22T01:09:40.399Z,100961.38
2023-03-22T01:12:11.754Z,100966.78
2023-03-22T01:14:43.477Z,100985.59
2023-03-22T01:17:14.964Z,100966.53
2023-03-22T01:19:46.520Z,100969.88
2023-03-22T01:22:18.778Z,100977.50
2023-03-22T01:24:51.357Z,100972.59
2023-03-22T01:27:23.562Z,100972.09
2023-03-22T01:29:54.545Z,100974.81
2023-03-22T01:32:26.662Z,100968.22
2023-03-22T01:34:57.794Z,100966.66
2023-03-22T01:37:33.588Z,100961.84
2023-03-22T01:40:07.217Z,100960.38
2023-03-22T01:42:38.720Z,100957.66
2023-03-22T01:45:15.469Z,100949.16
2023-03-22T01:48:04.439Z,100955.00
2023-03-22T01:50:43.543Z,100954.81
2023-03-22T01:53:16.205Z,100948.94
2023-03-22T01:55:47.812Z,100953.41
2023-03-22T01:58:26.153Z,100947.84
2023-03-22T02:01:02.190Z,100938.34
2023-03-22T02:04:14.456Z,100944.19
2023-03-22T02:06:48.071Z,100944.59
2023-03-22T02:09:23.045Z,100935.28
2023-03-22T02:12:02.416Z,100950.97
2023-03-22T02:14:47.430Z,100942.59
2023-03-22T02:17:54.003Z,100954.78
2023-03-22T02:20:59.563Z,100941.09
2023-03-22T02:23:52.791Z,100944.03
2023-03-22T02:27:03.901Z,100948.69
2023-03-22T02:29:40.037Z,100937.44
2023-03-22T02:32:41.903Z,100929.38
2023-03-22T02:35:25.453Z,100930.19
2023-03-22T02:38:21.204Z,100920.38
2023-03-22T02:41:02.038Z,100926.03
2023-03-22T02:43:47.236Z,100924.59
2023-03-22T02:47:08.796Z,100916.06
2023-03-22T02:49:43.018Z,100910.00
2023-03-22T02:52:37.102Z,100905.44
2023-03-22T02:55:53.398Z,100901.50
2023-03-22T02:58:40.517Z,100902.97
2023-03-22T03:01:22.163Z,100900.53
2023-03-22T03:03:58.707Z,100894.28
2023-03-22T03:06:32.800Z,100892.19
2023-03-22T03:09:06.032Z,100880.94
2023-03-22T03:11:38.032Z,100880.53
2023-03-22T03:14:22.963Z,100887.59
2023-03-22T03:17:15.333Z,100878.84
2023-03-22T03:20:18.845Z,100877.59
2023-03-22T03:22:58.248Z,100872.38
2023-03-22T03:25:44.410Z,100855.47
2023-03-22T03:28:54.630Z,100862.97
2023-03-22T03:31:29.169Z,100854.41
2023-03-22T03:34:21.956Z,100854.22
2023-03-22T03:36:59.583Z,100856.94
2023-03-22T03:39:34.246Z,100852.78
2023-03-22T03:42:08.508Z,100845.47
2023-03-22T03:44:40.431Z,100844.00
2023-03-22T03:47:13.013Z,100844.38
2023-03-22T03:49:46.081Z,100835.41
2023-03-22T03:52:18.152Z,100840.41
2023-03-22T03:54:49.631Z,100828.69
2023-03-22T03:57:27.558Z,100834.50
2023-03-22T03:59:58.836Z,100824.09
2023-03-22T04:02:44.692Z,100826.81
2023-03-22T04:05:33.531Z,100816.16
2023-03-22T04:08:12.985Z,100820.09
2023-03-22T04:10:45.103Z,100817.78
2023-03-22T04:13:16.312Z,100813.19
2023-03-22T04:15:50.040Z,100809.00
2023-03-22T04:18:22.209Z,100803.13
2023-03-22T04:20:54.632Z,100802.28
2023-03-22T04:23:26.582Z,100791.16
2023-03-22T04:26:00.608Z,100781.28
2023-03-22T04:28:42.548Z,100782.31
2023-03-22T04:31:15.361Z,100776.22
2023-03-22T04:34:06.405Z,100771.38
2023-03-22T04:36:53.350Z,100767.75
2023-03-22T04:39:47.479Z,100757.28
2023-03-22T04:42:39.168Z,100744.25
2023-03-22T04:45:20.322Z,100736.25
2023-03-22T04:47:57.799Z,100731.22
2023-03-22T04:50:30.299Z,100734.56
2023-03-22T04:53:05.512Z,100725.34
2023-03-22T04:55:36.762Z,100722.38
2023-03-22T04:58:07.884Z,100717.13
2023-03-22T05:00:39.971Z,100716.09
2023-03-22T05:03:11.547Z,100699.94
2023-03-22T05:05:55.936Z,100690.88
2023-03-22T05:08:33.317Z,100687.25
2023-03-22T05:11:21.259Z,100678.09
2023-03-22T05:14:05.581Z,100685.16
2023-03-22T05:16:37.052Z,100678.41
2023-03-22T05:19:15.041Z,100671.63
2023-03-22T05:21:53.625Z,100678.38
2023-03-22T05:24:24.825Z,100682.56
2023-03-22T05:26:56.037Z,100679.19
2023-03-22T05:29:30.311Z,100681.00
2023-03-22T05:32:10.887Z,100677.00
2023-03-22T05:34:43.763Z,100674.31
2023-03-22T05:37:24.908Z,100662.91
2023-03-22T05:39:58.937Z,100663.72
2023-03-22T05:42:38.403Z,100660.00
2023-03-22T05:45:19.502Z,100653.03
2023-03-22T05:47:57.996Z,100643.94
2023-03-22T05:50:32.226Z,100637.88
2023-03-22T05:53:04.909Z,100627.59
2023-03-22T05:56:01.841Z,100624.06
2023-03-22T05:58:36.069Z,100613.78
2023-03-22T06:01:13.161Z,100603.47
2023-03-22T06:03:50.748Z,100609.41
2023-03-22T06:06:40.362Z,100603.91
2023-03-22T06:09:25.983Z,100597.50
2023-03-22T06:11:57.248Z,100595.13
2023-03-22T06:14:28.380Z,100593.91
2023-03-22T06:17:22.079Z,100584.78
2023-03-22T06:19:55.317Z,100579.94
2023-03-22T06:22:27.793Z,100581.84
2023-03-22T06:25:09.103Z,100591.28
2023-03-22T06:27:45.200Z,100575.06
2023-03-22T06:30:17.977Z,100577.75
2023-03-22T06:33:16.401Z,100579.91
2023-03-22T06:35:51.099Z,100559.25
2023-03-22T06:38:31.633Z,100559.25
2023-03-22T06:41:03.024Z,100552.84
2023-03-22T06:43:34.232Z,100554.13
2023-03-22T06:46:16.764Z,100561.88
2023-03-22T06:48:57.848Z,100568.78
2023-03-22T06:51:29.175Z,100557.66
2023-03-22T06:54:00.598Z,100556.72
2023-03-22T06:56:32.365Z,100548.19
2023-03-22T06:59:05.590Z,100555.44
2023-03-22T07:01:36.891Z,100558.97
2023-03-22T07:04:08.244Z,100549.34
2023-03-22T07:06:41.304Z,100552.44
2023-03-22T07:09:12.726Z,100550.06
2023-03-22T07:11:43.613Z,100557.75
2023-03-22T07:14:15.146Z,100544.84
2023-03-22T07:17:02.519Z,100547.56
2023-03-22T07:19:34.197Z,100544.13
2023-03-22T07:22:10.756Z,100551.72
2023-03-22T07:24:55.761Z,100547.19
2023-03-22T07:27:30.195Z,100552.03
2023-03-22T07:30:02.172Z,100558.16
2023-03-22T07:32:38.672Z,100542.66
2023-03-22T07:35:14.107Z,100548.56
2023-03-22T07:37:49.808Z,100547.38
2023-03-22T07:40:27.379Z,100551.16
2023-03-22T07:43:00.170Z,100548.53
2023-03-22T07:45:54.808Z,100550.91
2023-03-22T07:48:54.097Z,100555.16
2023-03-22T07:51:43.225Z,100550.53
2023-03-22T07:54:30.536Z,100555.16
2023-03-22T07:57:04.354Z,100550.63
2023-03-22T07:59:40.217Z,100552.16
2023-03-22T08:02:15.233Z,100547.31
2023-03-22T08:04:53.879Z,100550.72
2023-03-22T08:07:55.597Z,100556.56
2023-03-22T08:10:27.075Z,100559.53
2023-03-22T08:12:59.367Z,100558.81
2023-03-22T08:15:30.637Z,100561.53
2023-03-22T08:18:02.010Z,100560.22
2023-03-22T08:20:46.412Z,100564.34
2023-03-22T08:23:35.034Z,100563.50
2023-03-22T08:26:30.037Z,100573.91
2023-03-22T08:29:07.990Z,100564.34
2023-03-22T08:31:41.562Z,100573.19
2023-03-22T08:34:13.831Z,100586.41
2023-03-22T08:36:45.206Z,100587.84
2023-03-22T08:39:16.650Z,100585.56
2023-03-22T08:41:55.068Z,100585.44
2023-03-22T08:44:28.603Z,100582.94
2023-03-22T08:47:01.670Z,100588.00
2023-03-22T08:49:36.074Z,100586.94
2023-03-22T08:52:14.857Z,100589.19
2023-03-22T08:55:24.318Z,100582.56
2023-03-22T08:58:14.948Z,100587.19
2023-03-22T09:01:04.923Z,100593.28
2023-03-22T09:03:48.322Z,100594.16
2023-03-22T09:06:19.181Z,100600.66
2023-03-22T09:08:53.095Z,100601.72
2023-03-22T09:11:26.153Z,100603.22
2023-03-22T09:13:57.272Z,100606.53
2023-03-22T09:16:28.279Z,100607.44
2023-03-22T09:19:00.106Z,100611.66
2023-03-22T09:21:31.659Z,100614.22
2023-03-22T09:24:11.810Z,100624.03
2023-03-22T09:26:48.064Z,100621.78
2023-03-22T09:29:21.891Z,100619.31
2023-03-22T09:31:54.548Z,100620.41
2023-03-22T09:34:30.261Z,100612.94
2023-03-22T09:37:05.171Z,100625.91
2023-03-22T09:39:48.809Z,100628.44
2023-03-22T09:42:27.740Z,100627.38
2023-03-22T09:45:00.464Z,100637.19
2023-03-22T09:47:47.855Z,100632.72
2023-03-22T09:50:29.908Z,100633.00
2023-03-22T09:53:02.023Z,100633.59
2023-03-22T09:56:01.784Z,100634.25
2023-03-22T09:58:54.400Z,100636.97
2023-03-22T10:01:50.408Z,100643.94
2023-03-22T10:04:39.926Z,100650.78
2023-03-22T10:07:28.168Z,100648.53
2023-03-22T10:10:22.498Z,100662.00
2023-03-22T10:13:08.784Z,100664.53
2023-03-22T10:15:53.757Z,100668.41
2023-03-22T10:18:34.925Z,100670.59
2023-03-22T10:21:08.161Z,100671.22
2023-03-22T10:23:44.859Z,100676.47
2023-03-22T10:26:36.745Z,100674.56
2023-03-22T10:29:15.181Z,100680.44
2023-03-22T10:31:47.062Z,100687.53
2023-03-22T10:34:34.104Z,100683.75
2023-03-22T10:37:06.239Z,100678.03
2023-03-22T10:39:43.959Z,100684.25
2023-03-22T10:42:19.204Z,100690.97
2023-03-22T10:44:53.025Z,100692.69
2023-03-22T10:48:09.986Z,100693.13
2023-03-22T10:50:43.527Z,100696.03
2023-03-22T10:53:32.912Z,100706.91
2023-03-22T10:56:04.156Z,100715.03
2023-03-22T10:58:36.676Z,100725.06
2023-03-22T11:01:11.956Z,100729.44
2023-03-22T11:03:48.822Z,100729.44
2023-03-22T11:06:28.278Z,100729.88
2023-03-22T11:09:04.379Z,100735.72
2023-03-22T11:11:57.508Z,100740.72
2023-03-22T11:14:39.203Z,100741.59
2023-03-22T11:17:12.568Z,100744.09
2023-03-22T11:19:55.725Z,100744.72
2023-03-22T11:22:27.268Z,100748.47
2023-03-22T11:24:59.335Z,100744.53
2023-03-22T11:27:33.886Z,100755.38
2023-03-22T11:30:28.714Z,100749.09
2023-03-22T11:33:25.401Z,100756.19
2023-03-22T11:35:59.449Z,100766.22
2023-03-22T11:38:49.112Z,100765.81
2023-03-22T11:41:36.119Z,100762.47
2023-03-22T11:44:09.431Z,100766.22
2023-03-22T11:46:40.983Z,100777.50
2023-03-22T11:49:18.222Z,100771.44
2023-03-22T11:51:50.362Z,100772.47
2023-03-22T11:54:40.850Z,100785.84
2023-03-22T11:57:18.138Z,100780.81
2023-03-22T12:00:23.449Z,100784.16
2023-03-22T12:03:00.279Z,100786.66
2023-03-22T12:05:37.239Z,100777.69
2023-03-22T12:08:31.318Z,100789.56
2023-03-22T12:11:12.451Z,100791.25
2023-03-22T12:13:49.063Z,100790.41
2023-03-22T12:16:25.094Z,100800.44
2023-03-22T12:19:33.429Z,100808.34
2023-03-22T12:22:29.347Z,100799.19
2023-03-22T12:25:02.844Z,100805.63
2023-03-22T12:27:36.864Z,100810.44
2023-03-22T12:30:14.298Z,100805.84
2023-03-22T12:33:14.439Z,100809.16
2023-03-22T12:35:47.444Z,100814.38
2023-03-22T12:38:31.147Z,100815.84
2023-03-22T12:41:05.286Z,100814.78
2023-03-22T12:44:00.117Z,100815.00
2023-03-22T12:47:00.305Z,100818.31
2023-03-22T12:49:56.443Z,100816.66
2023-03-22T12:52:45.491Z,100824.16
2023-03-22T12:55:36.352Z,100820.41
2023-03-22T12:58:09.110Z,100818.75
2023-03-22T13:00:54.686Z,100820.84
2023-03-22T13:03:47.389Z,100825.44
2023-03-22T13:06:54.519Z,100824.19
2023-03-22T13:09:45.648Z,100837.34
2023-03-22T13:12:20.057Z,100828.97
2023-03-22T13:15:02.095Z,100826.25
2023-03-22T13:17:34.700Z,100826.28
2023-03-22T13:20:09.523Z,100831.72
2023-03-22T13:22:42.671Z,100829.63
2023-03-22T13:25:20.266Z,100829.59
2023-03-22T13:27:55.729Z,100836.28
2023-03-22T13:30:30.473Z,100836.69
2023-03-22T13:33:09.564Z,100840.03
2023-03-22T13:35:55.164Z,100843.56
2023-03-22T13:38:32.804Z,100845.44
2023-03-22T13:41:28.046Z,100841.69
2023-03-22T13:44:01.851Z,100844.63
2023-03-22T13:46:39.936Z,100839.59
2023-03-22T13:49:41.241Z,100839.41
2023-03-22T13:52:44.646Z,100842.75
2023-03-22T13:55:40.863Z,100845.25
2023-03-22T13:58:49.804Z,100849.00
2023-03-22T14:01:36.055Z,100842.16
2023-03-22T14:04:13.851Z,100839.41
2023-03-22T14:07:07.876Z,100838.16
2023-03-22T14:10:02.384Z,100838.38
2023-03-22T14:12:38.925Z,100845.47
2023-03-22T14:15:13.101Z,100844.00
2023-03-22T14:17:48.728Z,100842.56
2023-03-22T14:20:24.901Z,100846.09
